FYKT/KMP METAR and TAF weather

Enter ICAO airport designator
Station Type Date Time Source
FYKT METAR 2022/01/19 15:00 UTC NOAA

FYKT 191500Z /////KT 9999 VCTSRA FEW040CB ///// Q////


Station Type Date Time Source
FYKT Decoded METAR 2022/01/19 15:00 UTC NOAA

Keetmanshoop, Namibia (FYKT) 26-32S 018-07E 1100M
Jan 19, 2022 - 10:00 AM EST / 2022.01.19 1500 UTC
Visibility: greater than 7 mile(s):0
Sky conditions: mostly clear
Weather: rain with thunder in the vicinity; Cumulonimbus clouds observed
ob: FYKT 191500Z /////KT 9999 VCTSRA FEW040CB ///// Q////
cycle: 15

Station Type Date Time Source
FYKT TAF 2022/01/19 18:03 UTC NOAA

TAF TAF FYKT 191600Z 1918/2018 00000KT 9999 FEW040CB
TEMPO 1919/2004 33007KT -TSRA FEW035CB

Example: see airport list